KDVT/DVT METAR and TAF weather

Enter ICAO airport designator
Station Type Date Time Source
KDVT METAR 2023/09/21 18:53 UTC NOAA

KDVT 211853Z 25005G14KT 10SM CLR 31/01 A2988 RMK AO2 SLP094 T03060006


Station Type Date Time Source
KDVT Decoded METAR 2023/09/21 18:53 UTC NOAA

PHOENIX-DEER VALLEY MUN, AZ, United States (KDVT) 33-41N 112-04W 443M
Sep 21, 2023 - 02:53 PM EDT / 2023.09.21 1853 UTC
Wind: from the WSW (250 degrees) at 6 MPH (5 KT) gusting to 16 MPH (14 KT):0
Visibility: 10 mile(s):0
Sky conditions: clear
Temperature: 87.1 F (30.6 C)
Dew Point: 33.1 F (0.6 C)
Relative Humidity: 14%
Pressure (altimeter): 29.88 in. Hg (1011 hPa)
ob: KDVT 211853Z 25005G14KT 10SM CLR 31/01 A2988 RMK AO2 SLP094 T03060006
cycle: 19

Station Type Date Time Source
KDVT TAF 2023/09/21 18:22 UTC NOAA

TAF KDVT 211720Z 2118/2218 17007G15KT P6SM SKC
FM212100 22010G19KT P6SM FEW250
FM220200 23007KT P6SM FEW250
FM220600 VRB04KT P6SM SCT250

Example: see airport list